createdAt,value
2023-03-06T00:03:21.436Z,2.80
2023-03-06T00:07:23.508Z,2.77
2023-03-06T00:11:25.572Z,2.73
2023-03-06T00:15:28.807Z,2.67
2023-03-06T00:19:30.875Z,2.65
2023-03-06T00:23:32.923Z,2.56
2023-03-06T00:27:34.917Z,2.50
2023-03-06T00:31:37.092Z,2.51
2023-03-06T00:35:40.369Z,2.56
2023-03-06T00:39:42.496Z,2.60
2023-03-06T00:43:44.486Z,2.67
2023-03-06T00:47:46.612Z,2.72
2023-03-06T00:51:50.048Z,2.75
2023-03-06T00:55:52.120Z,2.76
2023-03-06T00:59:54.132Z,2.72
2023-03-06T01:03:56.216Z,2.73
2023-03-06T01:07:58.215Z,2.68
2023-03-06T01:12:02.106Z,2.64
2023-03-06T01:16:13.267Z,2.60
2023-03-06T01:20:17.765Z,2.48
2023-03-06T01:24:19.796Z,2.41
2023-03-06T01:28:22.719Z,2.34
2023-03-06T01:32:24.880Z,2.36
2023-03-06T01:36:27.015Z,2.33
2023-03-06T01:40:31.724Z,2.34
2023-03-06T01:44:34.521Z,2.30
2023-03-06T01:48:36.519Z,2.29
2023-03-06T01:52:50.425Z,2.18
2023-03-06T01:56:57.731Z,2.16
2023-03-06T02:00:59.803Z,2.19
2023-03-06T02:05:04.432Z,2.12
2023-03-06T02:09:06.704Z,2.04
2023-03-06T02:13:08.804Z,1.98
2023-03-06T02:17:13.900Z,1.97
2023-03-06T02:21:21.618Z,1.96
2023-03-06T02:25:47.875Z,1.94
2023-03-06T02:29:50.161Z,1.93
2023-03-06T02:34:05.189Z,1.92
2023-03-06T02:38:13.628Z,1.94
2023-03-06T02:42:23.518Z,2.00
2023-03-06T02:46:25.669Z,2.02
2023-03-06T02:50:27.698Z,2.01
2023-03-06T02:54:29.849Z,2.04
2023-03-06T02:58:31.874Z,2.08
2023-03-06T03:02:34.651Z,2.16
2023-03-06T03:06:36.789Z,2.13
2023-03-06T03:10:38.878Z,2.08
2023-03-06T03:14:41.694Z,2.07
2023-03-06T03:18:44.939Z,2.09
2023-03-06T03:22:52.320Z,2.12
2023-03-06T03:26:54.306Z,2.09
2023-03-06T03:31:02.929Z,2.04
2023-03-06T03:35:07.559Z,2.03
2023-03-06T03:39:10.894Z,1.98
2023-03-06T03:43:13.425Z,1.91
2023-03-06T03:47:15.757Z,1.93
2023-03-06T03:51:18.053Z,1.96
2023-03-06T03:55:24.694Z,2.00
2023-03-06T03:59:27.715Z,2.05
2023-03-06T04:03:40.849Z,2.10
2023-03-06T04:07:44.563Z,2.05
2023-03-06T04:11:46.816Z,2.06
2023-03-06T04:15:51.859Z,2.07
2023-03-06T04:19:55.154Z,1.96
2023-03-06T04:23:58.533Z,2.01
2023-03-06T04:28:00.666Z,1.99
2023-03-06T04:32:04.366Z,1.93
2023-03-06T04:36:07.303Z,1.85
2023-03-06T04:40:21.785Z,1.79
2023-03-06T04:44:24.064Z,1.76
2023-03-06T04:48:26.092Z,1.66
2023-03-06T04:52:30.682Z,1.57
2023-03-06T04:56:34.339Z,1.52
2023-03-06T05:00:36.316Z,1.45
2023-03-06T05:04:38.312Z,1.35
2023-03-06T05:08:40.305Z,1.25
2023-03-06T05:12:42.716Z,1.10
2023-03-06T05:16:44.758Z,1.08
2023-03-06T05:20:47.003Z,1.04
2023-03-06T05:24:49.037Z,1.07
2023-03-06T05:28:51.061Z,1.11
2023-03-06T05:32:53.169Z,1.21
2023-03-06T05:36:55.243Z,1.26
2023-03-06T05:40:57.226Z,1.32
2023-03-06T05:44:59.210Z,1.38
2023-03-06T05:49:01.280Z,1.43
2023-03-06T05:53:03.820Z,1.44
2023-03-06T05:57:05.961Z,1.47
2023-03-06T06:01:13.729Z,1.53
2023-03-06T06:05:15.810Z,1.53
2023-03-06T06:09:17.846Z,1.58
2023-03-06T06:13:19.847Z,1.62
2023-03-06T06:17:21.879Z,1.65
2023-03-06T06:21:23.876Z,1.64
2023-03-06T06:25:25.865Z,1.62
2023-03-06T06:29:28.414Z,1.62
2023-03-06T06:33:30.441Z,1.68
2023-03-06T06:37:32.438Z,1.78
2023-03-06T06:46:18.725Z,1.70
2023-03-06T06:50:20.806Z,1.75
2023-03-06T06:54:22.908Z,1.77
2023-03-06T06:58:25.732Z,1.77
2023-03-06T07:02:27.863Z,1.78
2023-03-06T07:06:29.874Z,1.80
2023-03-06T07:10:32.047Z,1.75
2023-03-06T07:14:34.144Z,1.75
2023-03-06T07:18:36.157Z,1.80
2023-03-06T07:22:50.462Z,1.84
2023-03-06T07:26:53.356Z,1.92
2023-03-06T07:30:56.012Z,2.05
2023-03-06T07:35:17.211Z,2.21
2023-03-06T07:39:20.841Z,2.52
2023-03-06T07:43:22.865Z,2.48
2023-03-06T07:47:31.793Z,2.44
2023-03-06T07:51:33.787Z,2.41
2023-03-06T07:55:35.836Z,2.35
2023-03-06T07:59:37.830Z,2.28
2023-03-06T08:03:39.982Z,2.32
2023-03-06T08:07:43.724Z,2.37
2023-03-06T08:11:46.020Z,2.39
2023-03-06T08:15:49.259Z,2.54
2023-03-06T08:19:51.261Z,2.67
2023-03-06T08:23:53.819Z,2.68
2023-03-06T08:27:55.830Z,2.57
2023-03-06T08:31:57.835Z,2.48
2023-03-06T08:36:01.387Z,2.48
2023-03-06T08:40:04.876Z,2.45
2023-03-06T08:44:06.946Z,2.47
2023-03-06T08:48:08.937Z,2.62
2023-03-06T08:52:11.149Z,2.70
2023-03-06T08:56:22.644Z,2.91
2023-03-06T09:00:25.054Z,3.10
2023-03-06T09:04:29.724Z,3.21
2023-03-06T09:08:31.818Z,3.22
2023-03-06T09:12:47.358Z,3.41
2023-03-06T09:16:51.384Z,3.64
2023-03-06T09:20:53.325Z,3.76
2023-03-06T09:24:55.520Z,3.85
2023-03-06T09:28:57.630Z,3.80
2023-03-06T09:32:59.651Z,3.72
2023-03-06T09:37:02.797Z,3.87
2023-03-06T09:41:15.238Z,4.03
2023-03-06T09:45:17.786Z,4.06
2023-03-06T09:49:34.711Z,4.41
2023-03-06T09:54:02.655Z,4.41
2023-03-06T09:58:24.697Z,4.20
2023-03-06T10:02:37.110Z,4.27
2023-03-06T10:06:48.706Z,4.37
2023-03-06T10:10:58.586Z,4.43
2023-03-06T10:15:12.949Z,4.36
2023-03-06T10:19:18.482Z,4.46
2023-03-06T10:23:38.219Z,4.86
2023-03-06T10:28:03.328Z,5.19
2023-03-06T10:32:25.144Z,5.21
2023-03-06T10:36:28.569Z,5.03
2023-03-06T10:40:38.254Z,4.88
2023-03-06T10:44:40.328Z,4.90
2023-03-06T10:48:42.666Z,4.97
2023-03-06T10:52:44.814Z,4.95
2023-03-06T10:56:48.100Z,5.11
2023-03-06T11:01:21.593Z,5.13
2023-03-06T11:05:23.798Z,4.91
2023-03-06T11:09:26.258Z,4.61
2023-03-06T11:13:31.910Z,4.56
2023-03-06T11:17:37.499Z,4.72
2023-03-06T11:21:40.403Z,4.86
2023-03-06T11:25:48.641Z,4.98
2023-03-06T11:29:54.589Z,5.13
2023-03-06T11:34:16.336Z,5.37
2023-03-06T11:38:35.584Z,5.39
2023-03-06T11:43:19.162Z,5.53
2023-03-06T11:47:48.011Z,5.39
2023-03-06T11:51:55.611Z,5.41
2023-03-06T11:56:03.636Z,5.46
2023-03-06T12:00:43.053Z,5.78
2023-03-06T12:04:53.158Z,5.98
2023-03-06T12:09:25.180Z,5.71
2023-03-06T12:13:42.385Z,5.56
2023-03-06T12:18:15.243Z,5.33
2023-03-06T12:22:36.701Z,5.21
2023-03-06T12:26:51.100Z,5.10
2023-03-06T12:31:24.850Z,5.11
2023-03-06T12:35:53.210Z,5.22
2023-03-06T12:40:33.035Z,5.50
2023-03-06T12:45:01.371Z,5.56
2023-03-06T12:49:09.761Z,5.84
2023-03-06T12:53:42.446Z,5.93
2023-03-06T12:57:45.608Z,5.71
2023-03-06T13:02:13.529Z,5.51
2023-03-06T13:06:39.254Z,5.33
2023-03-06T13:11:17.451Z,5.25
2023-03-06T13:15:45.787Z,5.21
2023-03-06T13:19:49.107Z,5.33
2023-03-06T13:23:52.260Z,5.66
2023-03-06T13:27:54.272Z,5.88
2023-03-06T13:31:57.981Z,6.05
2023-03-06T13:36:39.943Z,6.08
2023-03-06T13:40:42.093Z,5.99
2023-03-06T13:44:45.859Z,5.87
2023-03-06T13:49:05.963Z,5.77
2023-03-06T13:53:26.802Z,5.45
2023-03-06T13:58:04.776Z,5.43
2023-03-06T14:02:20.887Z,5.60
2023-03-06T14:06:35.096Z,5.73
2023-03-06T14:10:38.547Z,5.71
2023-03-06T14:14:48.392Z,5.83
2023-03-06T14:18:56.100Z,6.21
2023-03-06T14:23:42.258Z,6.58
2023-03-06T14:27:49.904Z,6.79
2023-03-06T14:31:54.918Z,6.88
2023-03-06T14:36:01.216Z,6.77
2023-03-06T14:40:10.812Z,6.73
2023-03-06T14:44:21.400Z,6.60
2023-03-06T14:48:45.116Z,6.57
2023-03-06T14:52:48.515Z,6.61
2023-03-06T14:56:54.455Z,6.49
2023-03-06T15:01:01.193Z,6.30
2023-03-06T15:05:22.571Z,6.32
2023-03-06T15:09:33.982Z,6.35
2023-03-06T15:13:36.143Z,6.40
2023-03-06T15:17:39.512Z,6.36
2023-03-06T15:21:41.576Z,6.27
2023-03-06T15:25:56.148Z,6.09
2023-03-06T15:30:27.561Z,5.95
2023-03-06T15:34:29.594Z,5.89
2023-03-06T15:38:44.659Z,5.76
2023-03-06T15:42:46.990Z,5.48
2023-03-06T15:46:51.844Z,5.14
2023-03-06T15:50:55.875Z,4.87
2023-03-06T15:54:57.970Z,4.55
2023-03-06T15:59:01.269Z,4.22
2023-03-06T16:03:03.998Z,4.01
2023-03-06T16:07:06.078Z,3.80
2023-03-06T16:11:17.170Z,3.78
2023-03-06T16:15:30.329Z,3.66
2023-03-06T16:19:32.332Z,3.61
2023-03-06T16:23:38.729Z,3.69
2023-03-06T16:27:43.813Z,3.77
2023-03-06T16:31:45.948Z,3.69
2023-03-06T16:35:48.074Z,3.66
2023-03-06T16:39:50.099Z,3.75
2023-03-06T16:43:52.093Z,3.92
2023-03-06T16:47:54.497Z,4.01
2023-03-06T16:51:56.532Z,3.91
2023-03-06T16:55:58.507Z,3.77
2023-03-06T17:00:00.552Z,3.67
2023-03-06T17:04:03.416Z,3.59
2023-03-06T17:08:05.535Z,3.60
2023-03-06T17:12:07.895Z,3.57
2023-03-06T17:16:15.832Z,3.57
2023-03-06T17:20:19.360Z,3.57
2023-03-06T17:24:21.355Z,3.60
2023-03-06T17:28:23.370Z,3.63
2023-03-06T17:32:26.063Z,3.65
2023-03-06T17:36:29.706Z,3.71
2023-03-06T17:40:33.491Z,3.76
2023-03-06T17:44:36.187Z,3.82
2023-03-06T17:48:38.837Z,3.84
2023-03-06T17:52:40.840Z,3.77
2023-03-06T17:56:42.911Z,3.78
2023-03-06T18:00:45.807Z,3.82
2023-03-06T18:04:47.911Z,3.76
2023-03-06T18:08:52.788Z,3.80
2023-03-06T18:12:56.575Z,3.84
2023-03-06T18:16:58.586Z,3.87
2023-03-06T18:21:09.199Z,3.97
2023-03-06T18:25:11.265Z,3.98
2023-03-06T18:29:13.347Z,3.98
2023-03-06T18:33:15.351Z,4.01
2023-03-06T18:37:18.064Z,3.98
2023-03-06T18:41:21.198Z,3.97
2023-03-06T18:45:23.243Z,3.91
2023-03-06T18:49:25.360Z,3.87
2023-03-06T18:53:27.372Z,3.86
2023-03-06T18:57:30.404Z,3.85
2023-03-06T19:01:33.109Z,3.85
2023-03-06T19:05:39.684Z,3.81
2023-03-06T19:09:43.917Z,3.77
2023-03-06T19:13:45.909Z,3.81
2023-03-06T19:17:51.368Z,3.79
2023-03-06T19:21:53.718Z,3.70
2023-03-06T19:25:57.400Z,3.66
2023-03-06T19:29:59.488Z,3.60
2023-03-06T19:34:01.522Z,3.46
2023-03-06T19:38:03.636Z,3.34
2023-03-06T19:42:05.769Z,3.23
2023-03-06T19:46:12.896Z,3.09
2023-03-06T19:50:15.077Z,2.92
2023-03-06T19:54:17.144Z,2.71
2023-03-06T19:58:19.219Z,2.56
2023-03-06T20:02:26.393Z,2.42
2023-03-06T20:06:29.723Z,2.29
2023-03-06T20:10:31.650Z,2.16
2023-03-06T20:14:33.858Z,2.06
2023-03-06T20:18:35.888Z,2.01
2023-03-06T20:22:37.932Z,1.98
2023-03-06T20:26:39.963Z,1.95
2023-03-06T20:30:41.956Z,1.97
2023-03-06T20:34:44.455Z,2.00
2023-03-06T20:38:46.995Z,1.98
2023-03-06T20:42:49.001Z,1.96
2023-03-06T20:46:52.238Z,1.95
2023-03-06T20:51:05.753Z,1.91
2023-03-06T20:55:08.295Z,1.97
2023-03-06T20:59:12.128Z,1.92
2023-03-06T21:03:14.180Z,1.87
2023-03-06T21:07:16.883Z,1.78
2023-03-06T21:11:18.921Z,1.67
2023-03-06T21:15:21.532Z,1.56
2023-03-06T21:19:23.625Z,1.52
2023-03-06T21:23:25.696Z,1.49
2023-03-06T21:27:27.792Z,1.44
2023-03-06T21:31:31.026Z,1.50
2023-03-06T21:35:37.712Z,1.44
2023-03-06T21:39:39.741Z,1.42
2023-03-06T21:43:42.614Z,1.40
2023-03-06T21:47:47.848Z,1.46
2023-03-06T21:51:49.865Z,1.46
2023-03-06T21:55:51.856Z,1.63
2023-03-06T21:59:53.835Z,1.58
2023-03-06T22:03:58.192Z,1.41
2023-03-06T22:08:00.336Z,1.39
2023-03-06T22:12:03.901Z,1.38
2023-03-06T22:16:06.894Z,1.31
2023-03-06T22:20:09.794Z,1.35
2023-03-06T22:24:11.791Z,1.36
2023-03-06T22:28:15.943Z,1.37
2023-03-06T22:32:18.112Z,1.42
2023-03-06T22:36:21.236Z,1.44
2023-03-06T22:40:23.231Z,1.48
2023-03-06T22:44:25.218Z,1.50
2023-03-06T22:48:27.215Z,1.53
2023-03-06T22:52:29.238Z,1.59
2023-03-06T22:56:31.358Z,1.63
2023-03-06T23:00:33.368Z,1.57
2023-03-06T23:04:35.458Z,1.48
2023-03-06T23:08:38.099Z,1.45
2023-03-06T23:12:41.644Z,1.39
2023-03-06T23:17:02.041Z,1.47
2023-03-06T23:21:22.945Z,1.50
2023-03-06T23:25:44.242Z,1.51
2023-03-06T23:29:49.774Z,1.52
2023-03-06T23:33:51.776Z,1.51
2023-03-06T23:37:53.784Z,1.56
2023-03-06T23:41:56.216Z,1.62
2023-03-06T23:45:58.681Z,1.62
2023-03-06T23:50:00.779Z,1.65
2023-03-06T23:54:03.110Z,1.62
2023-03-06T23:58:05.107Z,1.62
